Time;durP1;ratioP1;P1;durP2;ratioP2;P2;SDS_P1;SDS_P2;PMS_P1;PMS_P2;Temp;Humidity;BMP_temperature;BMP_pressure;BME280_temperature;BME280_humidity;BME280_pressure;Samples;Min_cycle;Max_cycle;Signal;HPM_P1;HPM_P2
2021/03/14 00:01:01;;;;;;;;;;;15.70;59.70;;;;;;4879735;29;19935;-55
2021/03/14 00:03:28;;;;;;;;;;;15.70;59.80;;;;;;4879513;29;19908;-56
2021/03/14 00:05:54;;;;;;;;;;;15.70;59.90;;;;;;4879609;29;20379;-55
2021/03/14 00:08:22;;;;;;;;;;;15.60;59.80;;;;;;4879569;29;19907;-55
2021/03/14 00:10:52;;;;;;;;;;;15.60;59.80;;;;;;4879600;29;19908;-56
2021/03/14 00:13:19;;;;;;;;;;;15.60;59.70;;;;;;4879460;29;19908;-56
2021/03/14 00:15:45;;;;;;;;;;;15.50;59.90;;;;;;4879566;29;19939;-56
2021/03/14 00:18:10;;;;;;;;;;;15.60;60.00;;;;;;4879324;29;19998;-55
2021/03/14 00:20:36;;;;;;;;;;;15.50;59.90;;;;;;4879202;29;19919;-56
2021/03/14 00:23:03;;;;;;;;;;;15.30;59.90;;;;;;4879209;29;20019;-56
2021/03/14 00:25:28;;;;;;;;;;;15.60;60.00;;;;;;4879514;29;19952;-55
2021/03/14 00:27:54;;;;;;;;;;;15.50;59.90;;;;;;4879142;29;19943;-56
2021/03/14 00:30:20;;;;;;;;;;;15.50;60.00;;;;;;4879157;29;19927;-56
2021/03/14 00:32:46;;;;;;;;;;;15.50;60.00;;;;;;4879199;29;20348;-56
2021/03/14 00:35:12;;;;;;;;;;;15.30;59.90;;;;;;4879472;29;19907;-56
2021/03/14 00:37:38;;;;;;;;;;;15.50;60.00;;;;;;4879451;29;19907;-53
2021/03/14 00:40:05;;;;;;;;;;;15.40;59.90;;;;;;4879323;29;19986;-53
2021/03/14 00:42:30;;;;;;;;;;;15.50;60.00;;;;;;4878477;29;19908;-55
2021/03/14 00:44:56;;;;;;;;;;;15.30;59.90;;;;;;4878977;29;19944;-56
2021/03/14 00:47:21;;;;;;;;;;;15.40;59.90;;;;;;4879153;29;19912;-56
2021/03/14 00:49:47;;;;;;;;;;;15.40;59.80;;;;;;4879138;29;19908;-56
2021/03/14 00:52:12;;;;;;;;;;;15.40;59.90;;;;;;4878858;29;19907;-55
2021/03/14 00:54:39;;;;;;;;;;;15.40;59.90;;;;;;4878775;29;19911;-55
2021/03/14 00:57:05;;;;;;;;;;;15.40;59.90;;;;;;4878886;29;20339;-61
2021/03/14 00:59:30;;;;;;;;;;;15.40;59.90;;;;;;4879703;29;19966;-56
2021/03/14 01:01:56;;;;;;;;;;;15.30;60.50;;;;;;4878885;29;19912;-55
2021/03/14 01:04:21;;;;;;;;;;;15.40;60.00;;;;;;4878612;29;19915;-56
2021/03/14 01:06:47;;;;;;;;;;;15.30;59.90;;;;;;4878373;29;20392;-56
2021/03/14 01:09:12;;;;;;;;;;;15.30;60.00;;;;;;4878570;29;19915;-54
2021/03/14 01:11:38;;;;;;;;;;;15.30;60.00;;;;;;4878820;29;19911;-56
2021/03/14 01:14:03;;;;;;;;;;;15.20;59.90;;;;;;4878478;29;19922;-56
2021/03/14 01:16:29;;;;;;;;;;;15.20;60.00;;;;;;4878436;29;19915;-55
2021/03/14 01:18:54;;;;;;;;;;;15.50;60.10;;;;;;4878649;29;19908;-56
2021/03/14 01:21:20;;;;;;;;;;;15.10;59.90;;;;;;4878747;29;19923;-56
2021/03/14 01:23:45;;;;;;;;;;;15.50;60.20;;;;;;4878572;29;20016;-55
2021/03/14 01:26:11;;;;;;;;;;;15.00;60.00;;;;;;4861790;29;20355;-56
2021/03/14 01:28:36;;;;;;;;;;;15.20;60.10;;;;;;4878298;29;19908;-55
2021/03/14 01:31:02;;;;;;;;;;;15.20;60.10;;;;;;4878540;29;19915;-55
2021/03/14 01:33:27;;;;;;;;;;;15.20;60.10;;;;;;4878407;29;20517;-56
2021/03/14 01:35:53;;;;;;;;;;;15.10;60.00;;;;;;4878146;29;20302;-55
2021/03/14 01:38:19;;;;;;;;;;;15.20;60.10;;;;;;4878357;29;19912;-56
2021/03/14 01:40:44;;;;;;;;;;;15.20;60.20;;;;;;4878276;29;19973;-56
2021/03/14 01:43:10;;;;;;;;;;;15.10;60.00;;;;;;4878362;29;19915;-56
2021/03/14 01:45:36;;;;;;;;;;;15.10;60.20;;;;;;4878038;29;20503;-56
2021/03/14 01:48:02;;;;;;;;;;;15.10;60.20;;;;;;4878557;29;19907;-56
2021/03/14 01:50:30;;;;;;;;;;;15.10;60.20;;;;;;4878045;29;19915;-54
2021/03/14 01:52:56;;;;;;;;;;;15.10;60.20;;;;;;4878544;29;19930;-56
2021/03/14 01:55:21;;;;;;;;;;;15.00;60.10;;;;;;4864146;29;20347;-55
2021/03/14 01:57:47;;;;;;;;;;;15.10;60.20;;;;;;4881910;29;19936;-54
2021/03/14 02:00:21;;;;;;;;;;;15.00;60.10;;;;;;4882656;29;19926;-55
2021/03/14 02:02:47;;;;;;;;;;;15.10;60.20;;;;;;4881714;29;19912;-56
2021/03/14 02:05:16;;;;;;;;;;;15.00;60.20;;;;;;4881674;29;20419;-56
2021/03/14 02:07:43;;;;;;;;;;;15.00;60.20;;;;;;4881733;29;19956;-55
2021/03/14 02:10:09;;;;;;;;;;;15.00;60.30;;;;;;4881837;29;19959;-55
2021/03/14 02:12:55;;;;;;;;;;;15.00;60.10;;;;;;4881549;29;20363;-56
2021/03/14 02:15:21;;;;;;;;;;;15.00;60.20;;;;;;4881012;29;19956;-56
2021/03/14 02:17:47;;;;;;;;;;;15.00;60.20;;;;;;4881681;29;20320;-55
2021/03/14 02:20:15;;;;;;;;;;;14.80;60.10;;;;;;4881578;29;19920;-56
2021/03/14 02:22:42;;;;;;;;;;;15.00;60.20;;;;;;4881362;29;19908;-56
2021/03/14 02:25:11;;;;;;;;;;;14.80;60.20;;;;;;4881590;29;19908;-56
2021/03/14 02:27:38;;;;;;;;;;;14.90;60.20;;;;;;4881322;29;19907;-56
2021/03/14 02:30:05;;;;;;;;;;;14.90;60.20;;;;;;4881480;29;19955;-56
2021/03/14 02:32:32;;;;;;;;;;;14.90;60.30;;;;;;4880911;29;20407;-55
2021/03/14 02:35:00;;;;;;;;;;;14.90;60.20;;;;;;4881434;29;20275;-56
2021/03/14 02:37:25;;;;;;;;;;;14.80;60.10;;;;;;4881329;29;19915;-55
2021/03/14 02:39:53;;;;;;;;;;;14.70;60.10;;;;;;4881039;29;20276;-56
2021/03/14 02:42:18;;;;;;;;;;;14.90;60.20;;;;;;4881327;29;19941;-57
2021/03/14 02:44:47;;;;;;;;;;;14.90;60.30;;;;;;4881180;29;19919;-56
2021/03/14 02:47:13;;;;;;;;;;;14.90;60.30;;;;;;4880834;29;20439;-56
2021/03/14 02:49:38;;;;;;;;;;;14.90;60.20;;;;;;4879494;29;19912;-56
2021/03/14 02:52:04;;;;;;;;;;;14.90;60.20;;;;;;4881026;29;19963;-55
2021/03/14 02:54:32;;;;;;;;;;;14.80;60.30;;;;;;4881050;29;19992;-54
2021/03/14 02:56:57;;;;;;;;;;;14.80;60.20;;;;;;4880702;29;19936;-55
2021/03/14 02:59:30;;;;;;;;;;;14.70;60.20;;;;;;4882668;29;19951;-56
2021/03/14 03:02:03;;;;;;;;;;;14.70;60.20;;;;;;4880474;29;19967;-56
2021/03/14 03:04:28;;;;;;;;;;;14.80;60.20;;;;;;4880754;29;19912;-55
2021/03/14 03:06:54;;;;;;;;;;;14.80;60.30;;;;;;4880470;29;19915;-56
2021/03/14 03:09:20;;;;;;;;;;;14.70;60.20;;;;;;4880771;29;20345;-55
2021/03/14 03:11:48;;;;;;;;;;;14.80;60.30;;;;;;4880684;29;19954;-56
2021/03/14 03:14:15;;;;;;;;;;;14.70;60.30;;;;;;4880565;29;20387;-55
2021/03/14 03:16:41;;;;;;;;;;;14.80;60.30;;;;;;4880725;29;19951;-56
2021/03/14 03:19:10;;;;;;;;;;;14.70;60.30;;;;;;4880476;29;20013;-56
2021/03/14 03:21:36;;;;;;;;;;;14.70;60.20;;;;;;4880315;29;19907;-55
2021/03/14 03:24:01;;;;;;;;;;;14.70;60.20;;;;;;4878903;29;20025;-55
2021/03/14 03:26:27;;;;;;;;;;;14.80;60.30;;;;;;4880259;29;19943;-56
2021/03/14 03:28:52;;;;;;;;;;;14.70;60.20;;;;;;4880216;29;19908;-56
2021/03/14 03:31:18;;;;;;;;;;;14.70;60.20;;;;;;4880048;29;19908;-55
2021/03/14 03:33:43;;;;;;;;;;;15.00;60.40;;;;;;4880425;29;19916;-56
2021/03/14 03:36:15;;;;;;;;;;;14.70;60.20;;;;;;4880092;29;19912;-56
2021/03/14 03:38:40;;;;;;;;;;;14.70;60.20;;;;;;4879974;29;20014;-56
2021/03/14 03:41:06;;;;;;;;;;;14.70;60.30;;;;;;4879934;29;20010;-55
2021/03/14 03:43:32;;;;;;;;;;;14.70;60.30;;;;;;4880170;29;20427;-55
2021/03/14 03:45:59;;;;;;;;;;;14.60;60.20;;;;;;4879833;29;19939;-54
2021/03/14 03:48:43;;;;;;;;;;;14.60;60.20;;;;;;4879725;29;19916;-55
2021/03/14 03:51:09;;;;;;;;;;;14.70;60.20;;;;;;4879695;29;19908;-56
2021/03/14 03:53:36;;;;;;;;;;;14.60;60.30;;;;;;4879732;29;19907;-55
2021/03/14 03:56:02;;;;;;;;;;;14.60;60.30;;;;;;4879694;29;19915;-55
2021/03/14 03:58:29;;;;;;;;;;;14.60;60.30;;;;;;4863219;29;19908;-56
2021/03/14 04:01:02;;;;;;;;;;;14.60;60.30;;;;;;4881058;29;19958;-55
2021/03/14 04:03:29;;;;;;;;;;;14.60;60.20;;;;;;4879759;29;19916;-55
2021/03/14 04:05:56;;;;;;;;;;;14.60;60.30;;;;;;4862757;29;20007;-56
2021/03/14 04:08:22;;;;;;;;;;;14.20;60.10;;;;;;4879490;29;20427;-56
2021/03/14 04:10:48;;;;;;;;;;;14.60;60.30;;;;;;4879300;29;19907;-56
2021/03/14 04:13:14;;;;;;;;;;;14.60;60.30;;;;;;4862740;29;20105;-56
2021/03/14 04:15:40;;;;;;;;;;;14.80;60.40;;;;;;4879302;29;19908;-55
2021/03/14 04:18:06;;;;;;;;;;;14.50;60.20;;;;;;4878679;29;19908;-56
2021/03/14 04:20:33;;;;;;;;;;;14.60;60.30;;;;;;4879231;29;19916;-54
2021/03/14 04:23:00;;;;;;;;;;;14.60;60.30;;;;;;4879102;29;20290;-56
2021/03/14 04:25:26;;;;;;;;;;;14.40;60.20;;;;;;4879453;29;19907;-56
2021/03/14 04:27:52;;;;;;;;;;;14.50;60.30;;;;;;4879430;29;19964;-56
2021/03/14 04:30:19;;;;;;;;;;;14.50;60.30;;;;;;4879217;29;19998;-55
2021/03/14 04:32:45;;;;;;;;;;;14.50;60.30;;;;;;4879048;29;20364;-55
2021/03/14 04:35:11;;;;;;;;;;;14.40;60.20;;;;;;4878998;29;19954;-55
2021/03/14 04:37:38;;;;;;;;;;;14.50;60.30;;;;;;4878902;29;19908;-55
2021/03/14 04:40:06;;;;;;;;;;;14.50;60.30;;;;;;4879164;29;20260;-56
2021/03/14 04:42:32;;;;;;;;;;;14.50;60.30;;;;;;4878958;29;20330;-56
2021/03/14 04:44:58;;;;;;;;;;;14.50;60.30;;;;;;4879136;29;19915;-56
2021/03/14 04:47:23;;;;;;;;;;;14.50;60.30;;;;;;4878899;29;20280;-55
2021/03/14 04:49:48;;;;;;;;;;;14.50;60.40;;;;;;4879019;29;20283;-55
2021/03/14 04:52:17;;;;;;;;;;;14.40;60.30;;;;;;4879119;29;19919;-55
2021/03/14 04:54:42;;;;;;;;;;;14.50;60.30;;;;;;4879127;29;19914;-55
2021/03/14 04:57:19;;;;;;;;;;;14.40;60.30;;;;;;4877762;29;19930;-56
2021/03/14 04:59:44;;;;;;;;;;;14.40;60.20;;;;;;4878648;29;19919;-55
2021/03/14 05:02:17;;;;;;;;;;;14.40;60.30;;;;;;4879610;29;19923;-55
2021/03/14 05:04:43;;;;;;;;;;;14.40;60.30;;;;;;4878744;29;20374;-59
2021/03/14 05:07:10;;;;;;;;;;;14.40;60.30;;;;;;4878815;29;19956;-55
2021/03/14 05:09:36;;;;;;;;;;;14.40;60.40;;;;;;4878593;29;19908;-56
2021/03/14 05:12:02;;;;;;;;;;;14.40;60.40;;;;;;4878697;29;19954;-56
2021/03/14 05:14:28;;;;;;;;;;;14.40;60.30;;;;;;4878418;29;19973;-56
2021/03/14 05:16:54;;;;;;;;;;;14.40;60.40;;;;;;4878762;29;19922;-56
2021/03/14 05:19:19;;;;;;;;;;;14.20;60.20;;;;;;4878535;29;19920;-56
2021/03/14 05:21:45;;;;;;;;;;;14.20;60.20;;;;;;4878494;29;19907;-56
2021/03/14 05:24:11;;;;;;;;;;;14.20;60.30;;;;;;4862096;29;19919;-56
2021/03/14 05:26:39;;;;;;;;;;;14.40;60.40;;;;;;4878704;29;19919;-56
2021/03/14 05:29:04;;;;;;;;;;;14.30;60.30;;;;;;4881122;29;19922;-56
2021/03/14 05:31:32;;;;;;;;;;;14.30;60.40;;;;;;4882215;29;20371;-54
2021/03/14 05:33:58;;;;;;;;;;;14.30;60.30;;;;;;4882148;29;19912;-55
2021/03/14 05:36:24;;;;;;;;;;;14.30;60.30;;;;;;4882399;29;19954;-55
2021/03/14 05:38:50;;;;;;;;;;;14.30;60.30;;;;;;4882370;29;20311;-54
2021/03/14 05:41:15;;;;;;;;;;;14.20;60.20;;;;;;4882482;29;19916;-56
2021/03/14 05:43:42;;;;;;;;;;;14.30;60.90;;;;;;4865448;29;19908;-54
2021/03/14 05:46:08;;;;;;;;;;;14.20;60.40;;;;;;4882314;29;20359;-55
2021/03/14 05:48:34;;;;;;;;;;;14.20;60.20;;;;;;4881981;29;19915;-56
2021/03/14 05:50:59;;;;;;;;;;;14.30;60.30;;;;;;4882190;29;19963;-55
2021/03/14 05:53:25;;;;;;;;;;;14.30;60.40;;;;;;4881967;29;20359;-56
2021/03/14 05:55:50;;;;;;;;;;;14.20;60.30;;;;;;4881889;29;19908;-55
2021/03/14 05:58:16;;;;;;;;;;;14.10;60.20;;;;;;4881868;29;19907;-56
2021/03/14 06:00:49;;;;;;;;;;;14.10;60.20;;;;;;4882627;29;20002;-56
2021/03/14 06:03:15;;;;;;;;;;;14.30;60.20;;;;;;4864938;29;19915;-55
2021/03/14 06:05:40;;;;;;;;;;;14.30;60.30;;;;;;4881738;29;19908;-55
2021/03/14 06:08:06;;;;;;;;;;;14.20;60.40;;;;;;4881679;29;19963;-55
2021/03/14 06:10:32;;;;;;;;;;;14.40;60.70;;;;;;4881579;29;19908;-56
2021/03/14 06:12:57;;;;;;;;;;;14.40;60.70;;;;;;4881975;29;20003;-56
2021/03/14 06:15:23;;;;;;;;;;;14.40;60.10;;;;;;4881405;29;19907;-55
2021/03/14 06:17:48;;;;;;;;;;;14.50;60.90;;;;;;4881658;29;19911;-55
2021/03/14 06:20:33;;;;;;;;;;;14.60;61.20;;;;;;4881576;29;20423;-55
2021/03/14 06:23:06;;;;;;;;;;;14.60;61.00;;;;;;4881690;29;19912;-55
2021/03/14 06:25:31;;;;;;;;;;;14.70;60.80;;;;;;4881372;29;19915;-57
2021/03/14 06:27:57;;;;;;;;;;;14.70;61.00;;;;;;4881387;29;20271;-55
2021/03/14 06:30:26;;;;;;;;;;;14.80;61.00;;;;;;4881083;29;19944;-56
2021/03/14 06:33:05;;;;;;;;;;;14.80;60.70;;;;;;4881425;29;20253;-56
2021/03/14 06:35:43;;;;;;;;;;;14.90;60.70;;;;;;4881542;29;19908;-56
2021/03/14 06:38:19;;;;;;;;;;;14.80;60.60;;;;;;4881301;29;19908;-56
2021/03/14 06:40:45;;;;;;;;;;;14.80;60.60;;;;;;4880540;29;19919;-56
2021/03/14 06:43:11;;;;;;;;;;;14.80;60.70;;;;;;4881046;29;20324;-54
2021/03/14 06:45:38;;;;;;;;;;;14.60;60.60;;;;;;4881123;29;19958;-56
2021/03/14 06:48:04;;;;;;;;;;;14.70;60.70;;;;;;4881071;29;19919;-56
2021/03/14 06:50:29;;;;;;;;;;;14.80;60.60;;;;;;4880867;29;20048;-56
2021/03/14 06:53:08;;;;;;;;;;;14.70;60.50;;;;;;4880895;29;19915;-56
2021/03/14 06:55:33;;;;;;;;;;;14.70;60.40;;;;;;4881045;29;19907;-56
2021/03/14 06:58:17;;;;;;;;;;;14.70;60.60;;;;;;4880962;29;19911;-56
2021/03/14 07:01:03;;;;;;;;;;;14.60;60.80;;;;;;4881382;29;19926;-56
2021/03/14 07:03:28;;;;;;;;;;;14.60;60.80;;;;;;4880568;29;19972;-56
2021/03/14 07:06:12;;;;;;;;;;;14.80;60.80;;;;;;4880580;29;19962;-55
2021/03/14 07:08:37;;;;;;;;;;;14.20;60.50;;;;;;4863949;29;19908;-56
2021/03/14 07:11:02;;;;;;;;;;;14.50;60.60;;;;;;4880659;29;19915;-56
2021/03/14 07:13:28;;;;;;;;;;;14.40;60.50;;;;;;4880914;29;19935;-55
2021/03/14 07:15:53;;;;;;;;;;;14.20;61.00;;;;;;4880850;29;19916;-57
2021/03/14 07:18:19;;;;;;;;;;;14.40;60.40;;;;;;4880670;29;19918;-56
2021/03/14 07:20:44;;;;;;;;;;;14.50;60.50;;;;;;4880545;29;19919;-56
2021/03/14 07:23:11;;;;;;;;;;;14.40;60.50;;;;;;4880538;29;19929;-54
2021/03/14 07:25:40;;;;;;;;;;;14.40;60.40;;;;;;4880209;29;20423;-55
2021/03/14 07:28:06;;;;;;;;;;;14.50;60.50;;;;;;4880154;29;19907;-56
2021/03/14 07:30:32;;;;;;;;;;;14.50;60.00;;;;;;4879963;29;19908;-55
2021/03/14 07:32:57;;;;;;;;;;;14.50;60.60;;;;;;4863472;29;19908;-55
2021/03/14 07:35:23;;;;;;;;;;;14.20;60.70;;;;;;4863414;29;19908;-54
2021/03/14 07:37:49;;;;;;;;;;;14.50;60.60;;;;;;4880035;29;19964;-52
2021/03/14 07:40:16;;;;;;;;;;;14.40;60.80;;;;;;4880065;29;19920;-56
2021/03/14 07:42:42;;;;;;;;;;;14.50;60.80;;;;;;4880247;29;19956;-58
2021/03/14 07:45:11;;;;;;;;;;;14.50;60.60;;;;;;4879821;29;19912;-56
2021/03/14 07:47:37;;;;;;;;;;;14.50;60.50;;;;;;4880025;29;19912;-56
2021/03/14 07:50:05;;;;;;;;;;;14.50;60.60;;;;;;4879113;29;19908;-56
2021/03/14 07:52:30;;;;;;;;;;;14.50;60.60;;;;;;4877569;29;20426;-55
2021/03/14 07:55:00;;;;;;;;;;;14.30;60.60;;;;;;4879885;29;20015;-55
2021/03/14 07:57:27;;;;;;;;;;;14.50;60.60;;;;;;4879696;29;19914;-57
2021/03/14 07:59:52;;;;;;;;;;;14.50;60.70;;;;;;4879529;29;19915;-55
2021/03/14 08:02:18;;;;;;;;;;;14.50;60.70;;;;;;4880285;29;19927;-57
2021/03/14 08:04:50;;;;;;;;;;;14.50;60.80;;;;;;4879532;29;20510;-57
2021/03/14 08:07:15;;;;;;;;;;;14.50;60.70;;;;;;4879624;29;19908;-56
2021/03/14 08:09:42;;;;;;;;;;;14.70;60.90;;;;;;4879511;29;19915;-59
2021/03/14 08:12:13;;;;;;;;;;;14.50;60.80;;;;;;4879792;29;19995;-56
2021/03/14 08:14:42;;;;;;;;;;;14.50;60.80;;;;;;4879462;29;19907;-57
2021/03/14 08:17:14;;;;;;;;;;;14.50;60.80;;;;;;4879403;29;19915;-56
2021/03/14 08:19:40;;;;;;;;;;;14.60;60.90;;;;;;4879400;29;19944;-55
2021/03/14 08:22:06;;;;;;;;;;;14.60;60.90;;;;;;4879513;29;19923;-57
2021/03/14 08:24:32;;;;;;;;;;;14.70;60.90;;;;;;4879514;29;19908;-54
2021/03/14 08:27:07;;;;;;;;;;;14.80;60.80;;;;;;4879230;29;19907;-57
2021/03/14 08:29:42;;;;;;;;;;;14.80;60.70;;;;;;4879426;29;19915;-56
2021/03/14 08:32:21;;;;;;;;;;;14.90;60.60;;;;;;4879161;29;20546;-57
2021/03/14 08:34:47;;;;;;;;;;;14.90;60.40;;;;;;4879053;29;20287;-56
2021/03/14 08:37:20;;;;;;;;;;;15.20;60.50;;;;;;4879161;29;19908;-55
2021/03/14 08:39:46;;;;;;;;;;;14.90;60.30;;;;;;4879257;29;19962;-56
2021/03/14 08:42:11;;;;;;;;;;;15.10;60.40;;;;;;4878991;29;19961;-56
2021/03/14 08:44:39;;;;;;;;;;;14.80;60.30;;;;;;4879241;29;19908;-55
2021/03/14 08:47:08;;;;;;;;;;;14.70;60.20;;;;;;4879128;29;19934;-56
2021/03/14 08:49:34;;;;;;;;;;;14.80;60.20;;;;;;4879123;29;19907;-56
2021/03/14 08:52:00;;;;;;;;;;;14.80;60.20;;;;;;4879108;29;19967;-51
2021/03/14 08:54:26;;;;;;;;;;;14.80;60.30;;;;;;4862185;29;19994;-49
2021/03/14 08:56:55;;;;;;;;;;;14.60;60.10;;;;;;4879050;29;19915;-51
2021/03/14 08:59:21;;;;;;;;;;;14.80;60.00;;;;;;4862065;29;20080;-56
2021/03/14 09:01:50;;;;;;;;;;;14.70;59.70;;;;;;4879435;29;19927;-56
2021/03/14 09:04:17;;;;;;;;;;;14.70;59.80;;;;;;4878289;29;20429;-57
2021/03/14 09:06:43;;;;;;;;;;;14.80;59.80;;;;;;4878498;29;19907;-55
2021/03/14 09:09:09;;;;;;;;;;;15.00;59.90;;;;;;4878749;29;19908;-55
2021/03/14 09:11:44;;;;;;;;;;;15.10;59.40;;;;;;4878323;29;19919;-55
2021/03/14 09:14:25;;;;;;;;;;;15.50;58.90;;;;;;4878691;29;19918;-51
2021/03/14 09:16:51;;;;;;;;;;;15.70;58.50;;;;;;4878724;29;19911;-56
2021/03/14 09:19:20;;;;;;;;;;;15.60;58.00;;;;;;4878512;29;19994;-55
2021/03/14 09:21:49;;;;;;;;;;;15.90;57.80;;;;;;4878593;29;19990;-54
2021/03/14 09:24:31;;;;;;;;;;;16.10;57.50;;;;;;4878578;29;19911;-56
2021/03/14 09:26:58;;;;;;;;;;;16.70;57.50;;;;;;4878555;29;19918;-55
2021/03/14 09:29:36;;;;;;;;;;;16.30;57.10;;;;;;4878545;29;20004;-54
2021/03/14 09:32:02;;;;;;;;;;;16.30;56.90;;;;;;4861520;29;20332;-55
2021/03/14 09:34:28;;;;;;;;;;;16.40;56.90;;;;;;4878390;29;19962;-55
2021/03/14 09:36:53;;;;;;;;;;;16.40;56.70;;;;;;4878681;29;19943;-55
2021/03/14 09:39:23;;;;;;;;;;;16.50;56.50;;;;;;4878598;29;19920;-55
2021/03/14 09:41:48;;;;;;;;;;;16.60;56.30;;;;;;4878438;29;19908;-55
2021/03/14 09:44:15;;;;;;;;;;;16.50;56.20;;;;;;4878422;29;19983;-56
2021/03/14 09:46:51;;;;;;;;;;;16.60;56.30;;;;;;4878376;29;19915;-56
2021/03/14 09:49:16;;;;;;;;;;;16.50;56.10;;;;;;4878565;29;19908;-55
2021/03/14 09:51:42;;;;;;;;;;;16.60;56.10;;;;;;4878605;29;19955;-58
2021/03/14 09:54:10;;;;;;;;;;;16.50;56.20;;;;;;4878299;29;19908;-55
2021/03/14 09:56:36;;;;;;;;;;;16.40;56.00;;;;;;4878099;29;19908;-57
2021/03/14 09:59:04;;;;;;;;;;;16.40;55.80;;;;;;4878482;29;19914;-58
2021/03/14 10:01:29;;;;;;;;;;;16.50;55.50;;;;;;4862285;29;20038;-57
2021/03/14 10:03:58;;;;;;;;;;;16.50;55.20;;;;;;4878187;29;20032;-56
2021/03/14 10:06:24;;;;;;;;;;;16.60;55.10;;;;;;4878491;29;19915;-57
2021/03/14 10:08:50;;;;;;;;;;;16.60;55.00;;;;;;4878221;29;19912;-58
2021/03/14 10:11:16;;;;;;;;;;;16.60;54.90;;;;;;4877885;29;19918;-58
2021/03/14 10:13:47;;;;;;;;;;;16.70;54.80;;;;;;4861386;29;19915;-58
2021/03/14 10:16:13;;;;;;;;;;;16.50;54.80;;;;;;4880650;29;19908;-56
2021/03/14 10:18:39;;;;;;;;;;;16.60;54.70;;;;;;4881766;29;19907;-58
2021/03/14 10:21:13;;;;;;;;;;;16.40;54.40;;;;;;4881574;29;19920;-57
2021/03/14 10:23:39;;;;;;;;;;;16.60;54.40;;;;;;4881604;29;19954;-58
2021/03/14 10:26:08;;;;;;;;;;;16.50;54.50;;;;;;4881334;29;19964;-56
2021/03/14 10:28:37;;;;;;;;;;;16.60;54.30;;;;;;4881384;29;19923;-58
2021/03/14 10:31:06;;;;;;;;;;;16.70;54.30;;;;;;4881510;29;20296;-58
2021/03/14 10:33:33;;;;;;;;;;;16.60;54.20;;;;;;4864547;29;19911;-58
2021/03/14 10:36:05;;;;;;;;;;;16.60;54.20;;;;;;4881227;29;19931;-58
2021/03/14 10:38:38;;;;;;;;;;;16.60;54.00;;;;;;4881193;29;19908;-57
2021/03/14 10:41:08;;;;;;;;;;;16.70;54.00;;;;;;4881205;29;20290;-57
2021/03/14 10:43:33;;;;;;;;;;;16.60;53.80;;;;;;4881446;29;19990;-57
2021/03/14 10:45:59;;;;;;;;;;;16.40;53.80;;;;;;4881395;29;20390;-57
2021/03/14 10:48:26;;;;;;;;;;;16.50;53.90;;;;;;4881324;29;19911;-57
2021/03/14 10:51:01;;;;;;;;;;;16.60;53.90;;;;;;4881464;29;19964;-58
2021/03/14 10:53:26;;;;;;;;;;;16.60;53.80;;;;;;4881291;29;19908;-57
2021/03/14 10:56:00;;;;;;;;;;;16.60;53.90;;;;;;4864057;29;19931;-57
2021/03/14 10:58:33;;;;;;;;;;;16.60;53.80;;;;;;4880859;29;20002;-58
2021/03/14 11:01:00;;;;;;;;;;;16.50;53.80;;;;;;4881610;29;19927;-58
2021/03/14 11:03:28;;;;;;;;;;;16.60;53.90;;;;;;4880892;29;19916;-57
2021/03/14 11:06:13;;;;;;;;;;;16.50;53.90;;;;;;4881049;29;20118;-57
2021/03/14 11:08:49;;;;;;;;;;;16.50;53.80;;;;;;4880700;29;19957;-58
2021/03/14 11:11:15;;;;;;;;;;;16.50;53.80;;;;;;4880814;29;19920;-58
2021/03/14 11:13:40;;;;;;;;;;;16.30;53.80;;;;;;4880650;29;19967;-58
2021/03/14 11:16:07;;;;;;;;;;;16.40;53.90;;;;;;4880520;29;20390;-58
2021/03/14 11:18:32;;;;;;;;;;;16.40;53.80;;;;;;4880277;29;20427;-57
2021/03/14 11:20:58;;;;;;;;;;;16.40;53.80;;;;;;4880566;29;19916;-59
2021/03/14 11:23:23;;;;;;;;;;;16.20;53.70;;;;;;4880545;29;20104;-58
2021/03/14 11:25:51;;;;;;;;;;;16.20;53.60;;;;;;4880097;29;19908;-57
2021/03/14 11:28:17;;;;;;;;;;;16.40;53.70;;;;;;4880546;29;19998;-58
2021/03/14 11:30:42;;;;;;;;;;;16.40;53.70;;;;;;4880316;29;20043;-57
2021/03/14 11:33:08;;;;;;;;;;;16.40;53.70;;;;;;4863878;29;19907;-57
2021/03/14 11:35:34;;;;;;;;;;;16.30;53.60;;;;;;4880387;29;19911;-57
2021/03/14 11:37:59;;;;;;;;;;;16.10;53.40;;;;;;4880174;29;20364;-59
2021/03/14 11:40:25;;;;;;;;;;;16.40;53.50;;;;;;4863379;29;19920;-58
2021/03/14 11:42:50;;;;;;;;;;;16.30;53.60;;;;;;4879890;29;19908;-57
2021/03/14 11:45:16;;;;;;;;;;;16.20;53.50;;;;;;4880196;29;19914;-58
2021/03/14 11:47:42;;;;;;;;;;;16.30;53.50;;;;;;4880279;29;19908;-58
2021/03/14 11:50:08;;;;;;;;;;;16.20;53.40;;;;;;4879843;29;20022;-58
2021/03/14 11:52:34;;;;;;;;;;;16.30;53.30;;;;;;4880087;29;19908;-57
2021/03/14 11:54:59;;;;;;;;;;;16.10;53.30;;;;;;4879695;29;19908;-57
2021/03/14 11:57:25;;;;;;;;;;;16.20;53.90;;;;;;4880142;29;19911;-58
2021/03/14 11:59:51;;;;;;;;;;;16.00;53.10;;;;;;4879633;29;19916;-56
2021/03/14 12:02:16;;;;;;;;;;;16.20;53.10;;;;;;4880538;29;19975;-59
2021/03/14 12:04:42;;;;;;;;;;;16.30;53.10;;;;;;4879701;29;19910;-58
2021/03/14 12:07:08;;;;;;;;;;;16.30;53.10;;;;;;4879609;29;19979;-58
2021/03/14 12:09:33;;;;;;;;;;;16.20;52.90;;;;;;4862579;29;20291;-59
2021/03/14 12:12:01;;;;;;;;;;;16.20;52.80;;;;;;4879277;29;19908;-58
2021/03/14 12:14:26;;;;;;;;;;;16.20;52.80;;;;;;4879230;29;19942;-58
2021/03/14 12:16:52;;;;;;;;;;;16.30;52.90;;;;;;4879518;29;19961;-59
2021/03/14 12:19:17;;;;;;;;;;;16.10;52.80;;;;;;4862530;29;20009;-58
2021/03/14 12:21:43;;;;;;;;;;;15.90;52.70;;;;;;4879423;29;20320;-58
2021/03/14 12:24:08;;;;;;;;;;;16.20;52.70;;;;;;4878072;29;19911;-58
2021/03/14 12:26:34;;;;;;;;;;;16.20;52.70;;;;;;4879328;29;19967;-59
2021/03/14 12:29:01;;;;;;;;;;;16.90;53.10;;;;;;4879479;29;19949;-59
2021/03/14 12:31:27;;;;;;;;;;;16.20;52.80;;;;;;4878833;29;19912;-56
2021/03/14 12:33:52;;;;;;;;;;;16.60;53.00;;;;;;4879044;29;20313;-56
2021/03/14 12:36:18;;;;;;;;;;;16.00;52.70;;;;;;4879307;29;19962;-56
2021/03/14 12:38:50;;;;;;;;;;;16.20;52.90;;;;;;4878504;29;19911;-57
2021/03/14 12:41:15;;;;;;;;;;;16.40;53.00;;;;;;4878844;29;19923;-57
2021/03/14 12:43:41;;;;;;;;;;;16.20;53.10;;;;;;4879031;29;19963;-58
2021/03/14 12:46:06;;;;;;;;;;;16.20;53.20;;;;;;4879178;29;19908;-57
2021/03/14 12:48:32;;;;;;;;;;;16.40;53.40;;;;;;4879135;29;19915;-58
2021/03/14 12:50:58;;;;;;;;;;;16.40;53.70;;;;;;4878927;29;19908;-58
2021/03/14 12:53:23;;;;;;;;;;;16.60;53.70;;;;;;4879000;29;19908;-59
2021/03/14 12:55:49;;;;;;;;;;;16.60;53.80;;;;;;4878866;29;19908;-58
2021/03/14 12:58:14;;;;;;;;;;;16.50;53.80;;;;;;4878992;29;19912;-61
2021/03/14 13:00:40;;;;;;;;;;;16.60;53.90;;;;;;4878797;29;19927;-60
2021/03/14 13:03:05;;;;;;;;;;;16.60;54.00;;;;;;4879608;29;19924;-58
2021/03/14 13:05:31;;;;;;;;;;;16.70;54.20;;;;;;4879140;29;19907;-60
2021/03/14 13:07:56;;;;;;;;;;;16.60;54.20;;;;;;4878835;29;19911;-60
2021/03/14 13:10:23;;;;;;;;;;;16.50;54.30;;;;;;4862085;29;20290;-60
2021/03/14 13:12:48;;;;;;;;;;;16.70;54.50;;;;;;4878986;29;19914;-60
2021/03/14 13:15:14;;;;;;;;;;;16.40;54.30;;;;;;4878819;29;19912;-59
2021/03/14 13:17:40;;;;;;;;;;;16.60;54.50;;;;;;4878898;29;20027;-58
2021/03/14 13:20:06;;;;;;;;;;;16.60;54.60;;;;;;4878776;29;20366;-57
2021/03/14 13:22:31;;;;;;;;;;;16.60;54.60;;;;;;4877377;29;19931;-61
2021/03/14 13:24:57;;;;;;;;;;;16.60;54.60;;;;;;4878933;29;19907;-59
2021/03/14 13:27:22;;;;;;;;;;;16.60;54.60;;;;;;4846364;29;19908;-60
2021/03/14 13:29:48;;;;;;;;;;;16.60;54.50;;;;;;4878426;29;20355;-60
2021/03/14 13:32:13;;;;;;;;;;;16.60;54.50;;;;;;4878565;29;19918;-57
2021/03/14 13:34:42;;;;;;;;;;;16.50;54.40;;;;;;4878802;29;20010;-57
2021/03/14 13:37:09;;;;;;;;;;;16.60;54.40;;;;;;4878852;29;19908;-56
2021/03/14 13:39:35;;;;;;;;;;;16.60;54.40;;;;;;4878424;29;20462;-56
2021/03/14 13:42:01;;;;;;;;;;;16.40;54.20;;;;;;4878606;29;19919;-58
2021/03/14 13:44:27;;;;;;;;;;;16.30;54.20;;;;;;4878462;29;19912;-58
2021/03/14 13:46:53;;;;;;;;;;;16.60;54.30;;;;;;4861779;29;19908;-59
2021/03/14 13:49:18;;;;;;;;;;;16.50;54.00;;;;;;4879380;29;20270;-55
2021/03/14 13:51:43;;;;;;;;;;;16.50;54.00;;;;;;4882119;29;19983;-58
2021/03/14 13:54:09;;;;;;;;;;;16.30;53.90;;;;;;4881957;29;19907;-59
2021/03/14 13:56:34;;;;;;;;;;;16.50;53.90;;;;;;4881864;29;19914;-59
2021/03/14 13:59:00;;;;;;;;;;;16.50;53.80;;;;;;4882131;29;19912;-52
2021/03/14 14:01:26;;;;;;;;;;;16.70;53.90;;;;;;4882270;29;19927;-52
2021/03/14 14:03:51;;;;;;;;;;;17.20;54.10;;;;;;4881037;29;20629;-57
2021/03/14 14:06:17;;;;;;;;;;;16.30;53.50;;;;;;4880828;29;19912;-57
2021/03/14 14:08:43;;;;;;;;;;;16.50;53.50;;;;;;4880676;29;19962;-58
2021/03/14 14:11:09;;;;;;;;;;;16.50;53.50;;;;;;4881240;29;20360;-57
2021/03/14 14:13:34;;;;;;;;;;;16.40;53.60;;;;;;4881671;29;19913;-57
2021/03/14 14:16:07;;;;;;;;;;;16.40;53.70;;;;;;4881842;29;20019;-58